Time;durP1;ratioP1;P1;durP2;ratioP2;P2;SDS_P1;SDS_P2;PMS_P1;PMS_P2;Temp;Humidity;BMP_temperature;BMP_pressure;BME280_temperature;BME280_humidity;BME280_pressure;Samples;Min_cycle;Max_cycle;Signal;HPM_P1;HPM_P2
2023/07/20 00:00:22;;;;;;;;;;;;;;;22.94;nan;101043.75;5062749;28;19924;-82
2023/07/20 00:02:49;;;;;;;;;;;;;;;22.96;nan;101038.78;5060288;28;19924;-82
2023/07/20 00:05:18;;;;;;;;;;;;;;;22.95;nan;101048.91;5063349;28;19920;-82
2023/07/20 00:07:43;;;;;;;;;;;;;;;22.97;nan;101049.38;5059250;28;19921;-83
2023/07/20 00:10:08;;;;;;;;;;;;;;;23.01;nan;101046.81;5062503;28;19927;-82
2023/07/20 00:12:34;;;;;;;;;;;;;;;23.01;nan;101047.63;5065023;28;20020;-82
2023/07/20 00:14:59;;;;;;;;;;;;;;;22.98;nan;101040.09;5063939;28;19923;-81
2023/07/20 00:17:24;;;;;;;;;;;;;;;22.97;nan;101045.84;5064061;28;20777;-82
2023/07/20 00:19:50;;;;;;;;;;;;;;;23.00;nan;101051.50;5061938;28;19927;-82
2023/07/20 00:22:15;;;;;;;;;;;;;;;23.01;nan;101042.16;5063439;28;19920;-82
2023/07/20 00:24:41;;;;;;;;;;;;;;;23.03;nan;101045.38;5063508;28;19989;-82
2023/07/20 00:27:06;;;;;;;;;;;;;;;23.03;nan;101045.38;5061257;28;19921;-82
2023/07/20 00:29:31;;;;;;;;;;;;;;;23.06;nan;101038.44;5063462;28;20015;-82
2023/07/20 00:31:58;;;;;;;;;;;;;;;23.05;nan;101037.66;5068128;28;19916;-82
2023/07/20 00:34:23;;;;;;;;;;;;;;;23.01;nan;101036.69;5061717;28;20731;-82
2023/07/20 00:36:49;;;;;;;;;;;;;;;23.02;nan;101041.03;5065482;28;20015;-83
2023/07/20 00:39:14;;;;;;;;;;;;;;;23.02;nan;101041.03;5061432;28;21666;-81
2023/07/20 00:41:39;;;;;;;;;;;;;;;23.01;nan;101039.44;5057428;28;20007;-82
2023/07/20 00:44:05;;;;;;;;;;;;;;;23.01;nan;101042.16;5062765;28;19966;-82
2023/07/20 00:46:32;;;;;;;;;;;;;;;23.00;nan;101043.28;5063812;28;19923;-82
2023/07/20 00:48:57;;;;;;;;;;;;;;;22.97;nan;101046.66;5060897;28;19947;-81
2023/07/20 00:51:23;;;;;;;;;;;;;;;22.99;nan;101052.63;5056610;28;19929;-82
2023/07/20 00:53:48;;;;;;;;;;;;;;;23.02;nan;101054.69;5060193;28;20310;-82
2023/07/20 00:56:14;;;;;;;;;;;;;;;23.05;nan;101050.50;5061741;28;19931;-81
2023/07/20 00:58:39;;;;;;;;;;;;;;;23.05;nan;101048.56;5058344;28;19977;-82
2023/07/20 01:01:05;;;;;;;;;;;;;;;23.09;nan;101052.25;5060496;28;20016;-82
2023/07/20 01:03:30;;;;;;;;;;;;;;;23.11;nan;101055.47;5062067;28;19995;-82
2023/07/20 01:06:09;;;;;;;;;;;;;;;23.11;nan;101066.41;5064830;28;20419;-81
2023/07/20 01:08:40;;;;;;;;;;;;;;;23.12;nan;101059.81;5059047;28;19981;-81
2023/07/20 01:11:28;;;;;;;;;;;;;;;23.10;nan;101053.88;5061652;28;20415;-82
2023/07/20 01:13:53;;;;;;;;;;;;;;;23.11;nan;101063.66;5059773;28;19965;-82
2023/07/20 01:16:19;;;;;;;;;;;;;;;23.09;nan;101057.72;5061237;28;20369;-82
2023/07/20 01:18:44;;;;;;;;;;;;;;;23.07;nan;101057.25;5060753;28;19916;-82
2023/07/20 01:21:12;;;;;;;;;;;;;;;23.06;nan;101057.59;5058880;28;19932;-82
2023/07/20 01:23:46;;;;;;;;;;;;;;;23.04;nan;101051.63;5058953;28;19967;-81
2023/07/20 01:26:24;;;;;;;;;;;;;;;23.02;nan;101046.50;5065929;28;20285;-82
2023/07/20 01:28:57;;;;;;;;;;;;;;;23.03;nan;101050.84;5059741;28;19920;-82
2023/07/20 01:31:24;;;;;;;;;;;;;;;23.00;nan;101056.97;5057319;28;20027;-82
2023/07/20 01:33:50;;;;;;;;;;;;;;;23.02;nan;101048.44;5058833;28;19962;-82
2023/07/20 01:36:17;;;;;;;;;;;;;;;23.02;nan;101054.69;5056031;28;20490;-82
2023/07/20 01:38:43;;;;;;;;;;;;;;;23.04;nan;101049.72;5058986;28;20425;-82
2023/07/20 01:41:10;;;;;;;;;;;;;;;23.02;nan;101042.97;5060063;28;20412;-82
2023/07/20 01:43:36;;;;;;;;;;;;;;;23.01;nan;101042.16;5056255;28;19967;-82
2023/07/20 01:46:01;;;;;;;;;;;;;;;22.98;nan;101041.97;5061092;28;19928;-82
2023/07/20 01:48:26;;;;;;;;;;;;;;;23.00;nan;101046.03;5060866;28;20504;-82
2023/07/20 01:50:51;;;;;;;;;;;;;;;23.02;nan;101048.44;5060212;28;19924;-82
2023/07/20 01:53:17;;;;;;;;;;;;;;;23.03;nan;101039.91;5060453;28;20011;-82
2023/07/20 01:55:42;;;;;;;;;;;;;;;23.01;nan;101033.97;5060474;28;19917;-82
2023/07/20 01:58:08;;;;;;;;;;;;;;;23.01;nan;101035.91;5060740;28;19936;-82
2023/07/20 02:00:33;;;;;;;;;;;;;;;22.97;nan;101030.25;5061630;28;19917;-82
2023/07/20 02:02:58;;;;;;;;;;;;;;;22.98;nan;101034.63;5057273;28;20428;-82
2023/07/20 02:05:24;;;;;;;;;;;;;;;23.02;nan;101038.31;5061029;28;19921;-81
2023/07/20 02:07:49;;;;;;;;;;;;;;;23.05;nan;101036.84;5062698;28;20550;-82
2023/07/20 02:10:15;;;;;;;;;;;;;;;23.06;nan;101049.38;5057258;28;20399;-81
2023/07/20 02:12:41;;;;;;;;;;;;;;;23.06;nan;101050.19;5060808;28;20423;-82
2023/07/20 02:15:06;;;;;;;;;;;;;;;23.08;nan;101039.72;5058496;28;19920;-81
2023/07/20 02:17:31;;;;;;;;;;;;;;;23.13;nan;101047.75;5058235;28;20012;-82
2023/07/20 02:20:00;;;;;;;;;;;;;;;23.16;nan;101046.28;5063834;28;19948;-82
2023/07/20 02:22:25;;;;;;;;;;;;;;;23.19;nan;101043.72;5059511;28;19931;-82
2023/07/20 02:24:50;;;;;;;;;;;;;;;23.21;nan;101041.47;5062278;28;19916;-82
2023/07/20 02:27:16;;;;;;;;;;;;;;;23.25;nan;101036.16;5060898;28;19939;-82
2023/07/20 02:29:41;;;;;;;;;;;;;;;23.28;nan;101045.63;5057952;28;19921;-82
2023/07/20 02:32:07;;;;;;;;;;;;;;;23.30;nan;101048.81;5062085;28;19959;-82
2023/07/20 02:34:33;;;;;;;;;;;;;;;23.30;nan;101048.81;5061351;28;19917;-82
2023/07/20 02:37:00;;;;;;;;;;;;;;;23.24;nan;101048.22;5057855;28;20031;-82
2023/07/20 02:39:29;;;;;;;;;;;;;;;23.19;nan;101032.78;5060738;28;19977;-82
2023/07/20 02:41:54;;;;;;;;;;;;;;;23.17;nan;101029.59;5067824;28;19932;-82
2023/07/20 02:44:19;;;;;;;;;;;;;;;23.19;nan;101032.78;5063312;28;19920;-82
2023/07/20 02:46:45;;;;;;;;;;;;;;;23.23;nan;101029.41;5061655;28;19924;-82
2023/07/20 02:49:10;;;;;;;;;;;;;;;23.23;nan;101034.88;5062045;28;19928;-82
2023/07/20 02:51:36;;;;;;;;;;;;;;;23.22;nan;101031.34;5064778;28;19916;-82
2023/07/20 02:54:01;;;;;;;;;;;;;;;23.24;nan;101036.47;5060856;28;19917;-83
2023/07/20 02:56:27;;;;;;;;;;;;;;;23.26;nan;101047.88;5057850;28;19940;-82
2023/07/20 02:58:52;;;;;;;;;;;;;;;23.26;nan;101053.34;5059185;28;20608;-83
2023/07/20 03:01:17;;;;;;;;;;;;;;;23.24;nan;101047.41;5065665;28;20421;-82
2023/07/20 03:03:46;;;;;;;;;;;;;;;23.21;nan;101046.13;5060869;28;19917;-82
2023/07/20 03:06:12;;;;;;;;;;;;;;;23.19;nan;101045.66;5059904;28;19924;-82
2023/07/20 03:08:37;;;;;;;;;;;;;;;23.17;nan;101043.25;5060797;28;19962;-82
2023/07/20 03:11:02;;;;;;;;;;;;;;;23.15;nan;101036.47;5063477;28;19960;-82
2023/07/20 03:13:28;;;;;;;;;;;;;;;23.13;nan;101034.06;5056163;28;19923;-82
2023/07/20 03:15:53;;;;;;;;;;;;;;;23.12;nan;101043.41;5066786;28;19940;-82
2023/07/20 03:18:18;;;;;;;;;;;;;;;23.12;nan;101045.34;5058580;28;19920;-83
2023/07/20 03:20:44;;;;;;;;;;;;;;;23.12;nan;101048.06;5062142;28;19999;-82
2023/07/20 03:23:10;;;;;;;;;;;;;;;23.14;nan;101056.75;5065613;28;19916;-82
2023/07/20 03:25:37;;;;;;;;;;;;;;;23.14;nan;101049.34;5063918;28;20011;-82
2023/07/20 03:28:02;;;;;;;;;;;;;;;23.14;nan;101045.81;5064165;28;20035;-82
2023/07/20 03:30:28;;;;;;;;;;;;;;;23.11;nan;101043.72;5063969;28;20012;-82
2023/07/20 03:32:53;;;;;;;;;;;;;;;23.09;nan;101048.72;5061240;28;20005;-82
2023/07/20 03:35:18;;;;;;;;;;;;;;;23.10;nan;101050.34;5066283;28;19959;-82
2023/07/20 03:37:44;;;;;;;;;;;;;;;23.12;nan;101061.75;5063138;28;19920;-82
2023/07/20 03:40:09;;;;;;;;;;;;;;;23.12;nan;101059.81;5061109;28;20419;-82
2023/07/20 03:42:36;;;;;;;;;;;;;;;23.14;nan;101060.28;5065587;28;20388;-82
2023/07/20 03:45:02;;;;;;;;;;;;;;;23.15;nan;101056.41;5064628;28;19931;-82
2023/07/20 03:47:28;;;;;;;;;;;;;;;23.17;nan;101062.38;5064045;28;19917;-82
2023/07/20 03:49:53;;;;;;;;;;;;;;;23.20;nan;101067.19;5063399;28;20011;-82
2023/07/20 03:52:18;;;;;;;;;;;;;;;23.21;nan;101060.59;5067289;28;19916;-82
2023/07/20 03:54:44;;;;;;;;;;;;;;;23.16;nan;101060.78;5062789;28;19967;-82
2023/07/20 03:57:09;;;;;;;;;;;;;;;23.14;nan;101065.75;5064065;28;19977;-82
2023/07/20 03:59:34;;;;;;;;;;;;;;;23.13;nan;101071.53;5061560;28;20422;-82
2023/07/20 04:02:00;;;;;;;;;;;;;;;23.15;nan;101069.28;5058712;28;19921;-82
2023/07/20 04:04:25;;;;;;;;;;;;;;;23.17;nan;101073.31;5061216;28;19925;-82
2023/07/20 04:06:50;;;;;;;;;;;;;;;23.21;nan;101073.47;5065928;28;20324;-83
2023/07/20 04:09:16;;;;;;;;;;;;;;;23.22;nan;101072.34;5068435;28;20392;-82
2023/07/20 04:11:41;;;;;;;;;;;;;;;23.25;nan;101077.16;5060166;28;19948;-82
2023/07/20 04:14:06;;;;;;;;;;;;;;;23.30;nan;101078.91;5066492;28;20412;-82
2023/07/20 04:16:33;;;;;;;;;;;;;;;23.33;nan;101073.56;5062447;28;20431;-82
2023/07/20 04:18:58;;;;;;;;;;;;;;;23.37;nan;101080.03;5058880;28;19917;-82
2023/07/20 04:21:27;;;;;;;;;;;;;;;23.41;nan;101082.91;5061383;28;19954;-82
2023/07/20 04:23:53;;;;;;;;;;;;;;;23.41;nan;101091.91;5060315;28;20710;-82
2023/07/20 04:26:18;;;;;;;;;;;;;;;23.41;nan;101088.38;5063943;28;19916;-82
2023/07/20 04:28:43;;;;;;;;;;;;;;;23.42;nan;101092.72;5061301;28;19916;-82
2023/07/20 04:31:11;;;;;;;;;;;;;;;23.42;nan;101096.25;5062783;28;19916;-83
2023/07/20 04:33:36;;;;;;;;;;;;;;;23.38;nan;101092.56;5066297;28;19921;-82
2023/07/20 04:36:01;;;;;;;;;;;;;;;23.43;nan;101088.84;5059768;28;20334;-82
2023/07/20 04:38:27;;;;;;;;;;;;;;;23.47;nan;101089.78;5058349;28;20381;-82
2023/07/20 04:40:52;;;;;;;;;;;;;;;23.51;nan;101088.00;5066788;28;20435;-82
2023/07/20 04:43:17;;;;;;;;;;;;;;;23.59;nan;101092.69;5068901;28;19960;-83
2023/07/20 04:45:43;;;;;;;;;;;;;;;23.68;nan;101095.38;5062326;28;19923;-83
2023/07/20 04:48:10;;;;;;;;;;;;;;;23.73;nan;101089.75;5062395;28;19916;-82
2023/07/20 04:50:35;;;;;;;;;;;;;;;23.75;nan;101088.28;5064028;28;19956;-83
2023/07/20 04:53:01;;;;;;;;;;;;;;;23.75;nan;101088.28;5059026;28;19989;-82
2023/07/20 04:55:27;;;;;;;;;;;;;;;23.74;nan;101089.41;5063100;28;19920;-82
2023/07/20 04:57:53;;;;;;;;;;;;;;;23.72;nan;101088.94;5068172;28;19927;-82
2023/07/20 05:00:19;;;;;;;;;;;;;;;23.66;nan;101084.75;5059352;28;19920;-83
2023/07/20 05:02:44;;;;;;;;;;;;;;;23.69;nan;101089.56;5062671;28;19921;-83
2023/07/20 05:05:09;;;;;;;;;;;;;;;23.75;nan;101088.28;5065810;28;20049;-83
2023/07/20 05:07:35;;;;;;;;;;;;;;;23.83;nan;101094.84;5065500;28;19924;-80
2023/07/20 05:10:00;;;;;;;;;;;;;;;23.93;nan;101080.00;5062540;28;19989;-83
2023/07/20 05:12:25;;;;;;;;;;;;;;;23.98;nan;101090.75;5063343;28;20555;-84
2023/07/20 05:14:51;;;;;;;;;;;;;;;24.05;nan;101088.28;5066511;28;19916;-84
2023/07/20 05:17:16;;;;;;;;;;;;;;;24.14;nan;101091.78;5063112;28;19928;-84
2023/07/20 05:19:41;;;;;;;;;;;;;;;24.19;nan;101102.53;5062908;28;19916;-83
2023/07/20 05:22:07;;;;;;;;;;;;;;;24.27;nan;101096.22;5055657;28;19920;-84
2023/07/20 05:24:32;;;;;;;;;;;;;;;24.31;nan;101094.44;5058449;28;19921;-84
2023/07/20 05:27:00;;;;;;;;;;;;;;;24.34;nan;101093.78;5059801;28;20011;-84
2023/07/20 05:29:25;;;;;;;;;;;;;;;24.41;nan;101101.47;5061008;28;19931;-85
2023/07/20 05:31:51;;;;;;;;;;;;;;;24.48;nan;101103.69;5063374;28;19919;-85
2023/07/20 05:34:16;;;;;;;;;;;;;;;24.60;nan;101093.59;5059975;28;20446;-84
2023/07/20 05:36:41;;;;;;;;;;;;;;;24.67;nan;101102.09;5059960;28;19925;-84
2023/07/20 05:39:07;;;;;;;;;;;;;;;24.75;nan;101096.84;5065353;28;20003;-84
2023/07/20 05:41:32;;;;;;;;;;;;;;;24.82;nan;101094.41;5064329;28;20350;-85
2023/07/20 05:43:57;;;;;;;;;;;;;;;24.94;nan;101097.97;5069817;28;19916;-85
2023/07/20 05:46:24;;;;;;;;;;;;;;;24.94;nan;101097.97;5065335;28;19916;-84
2023/07/20 05:48:49;;;;;;;;;;;;;;;24.94;nan;101094.44;5064129;28;19950;-85
2023/07/20 05:51:15;;;;;;;;;;;;;;;24.97;nan;101100.06;5067656;28;20477;-84
2023/07/20 05:53:41;;;;;;;;;;;;;;;25.03;nan;101102.63;5066896;28;20435;-85
2023/07/20 05:56:09;;;;;;;;;;;;;;;25.16;nan;101099.59;5062112;28;20037;-85
2023/07/20 05:58:35;;;;;;;;;;;;;;;25.27;nan;101099.94;5062710;28;19923;-85
2023/07/20 06:01:00;;;;;;;;;;;;;;;25.32;nan;101102.50;5069777;28;19916;-85
2023/07/20 06:03:25;;;;;;;;;;;;;;;25.42;nan;101110.28;5064274;28;19997;-85
2023/07/20 06:05:51;;;;;;;;;;;;;;;25.49;nan;101107.75;5064658;28;20509;-85
2023/07/20 06:08:17;;;;;;;;;;;;;;;25.53;nan;101108.72;5061772;28;20704;-84
2023/07/20 06:10:42;;;;;;;;;;;;;;;25.58;nan;101097.50;5067158;28;19916;-84
2023/07/20 06:13:08;;;;;;;;;;;;;;;25.73;nan;101106.25;5062252;28;19921;-86
2023/07/20 06:15:36;;;;;;;;;;;;;;;25.78;nan;101101.34;5059138;28;20517;-85
2023/07/20 06:18:03;;;;;;;;;;;;;;;25.83;nan;101109.31;5058161;28;19924;-86
2023/07/20 06:20:28;;;;;;;;;;;;;;;25.91;nan;101102.16;5065747;28;19921;-85
2023/07/20 06:22:54;;;;;;;;;;;;;;;25.99;nan;101112.19;5056107;28;19951;-85
2023/07/20 06:25:20;;;;;;;;;;;;;;;26.00;nan;101111.06;5059029;28;19960;-84
2023/07/20 06:27:46;;;;;;;;;;;;;;;26.05;nan;101123.78;5061870;28;20835;-84
2023/07/20 06:30:11;;;;;;;;;;;;;;;26.11;nan;101122.38;5054727;28;20034;-84
2023/07/20 06:32:38;;;;;;;;;;;;;;;26.05;nan;101123.78;5063880;28;19963;-86
2023/07/20 06:35:03;;;;;;;;;;;;;;;26.04;nan;101112.00;5057937;28;19920;-84
2023/07/20 06:37:29;;;;;;;;;;;;;;;26.06;nan;101120.69;5060282;28;19924;-84
2023/07/20 06:39:54;;;;;;;;;;;;;;;26.07;nan;101116.78;5059145;28;19917;-86
2023/07/20 06:42:19;;;;;;;;;;;;;;;26.09;nan;101111.75;5059788;28;19920;-84
2023/07/20 06:44:45;;;;;;;;;;;;;;;26.14;nan;101113.44;5060332;28;20663;-84
2023/07/20 06:47:10;;;;;;;;;;;;;;;26.18;nan;101115.16;5060116;28;19916;-84
2023/07/20 06:49:36;;;;;;;;;;;;;;;26.24;nan;101117.69;5062477;28;20370;-84
2023/07/20 06:52:01;;;;;;;;;;;;;;;26.27;nan;101117.00;5066934;28;20021;-84
2023/07/20 06:54:26;;;;;;;;;;;;;;;26.31;nan;101124.19;5058034;28;19924;-84
2023/07/20 06:56:51;;;;;;;;;;;;;;;26.25;nan;101119.28;5067018;28;19924;-86
2023/07/20 06:59:17;;;;;;;;;;;;;;;26.27;nan;101117.81;5063757;28;19991;-85
2023/07/20 07:01:42;;;;;;;;;;;;;;;26.24;nan;101117.69;5060765;28;19970;-85
2023/07/20 07:04:07;;;;;;;;;;;;;;;26.24;nan;101112.19;5059358;28;20042;-84
2023/07/20 07:06:33;;;;;;;;;;;;;;;26.34;nan;101115.25;5061454;28;19924;-84
2023/07/20 07:08:58;;;;;;;;;;;;;;;26.36;nan;101120.44;5063848;28;20388;-84
2023/07/20 07:11:23;;;;;;;;;;;;;;;26.45;nan;101119.19;5062492;28;19920;-84
2023/07/20 07:13:51;;;;;;;;;;;;;;;26.51;nan;101119.72;5060521;28;19920;-84
2023/07/20 07:16:18;;;;;;;;;;;;;;;26.62;nan;101129.09;5062359;28;19928;-86
2023/07/20 07:18:44;;;;;;;;;;;;;;;26.64;nan;101128.75;5062825;28;19946;-85
2023/07/20 07:21:10;;;;;;;;;;;;;;;26.63;nan;101125.19;5063891;28;19955;-85
2023/07/20 07:23:35;;;;;;;;;;;;;;;26.48;nan;101125.91;5061828;28;20478;-86
2023/07/20 07:26:00;;;;;;;;;;;;;;;26.52;nan;101123.28;5062153;28;19920;-85
2023/07/20 07:28:25;;;;;;;;;;;;;;;26.54;nan;101127.28;5063626;28;19932;-86
2023/07/20 07:30:51;;;;;;;;;;;;;;;26.63;nan;101136.19;5063282;28;19995;-85
2023/07/20 07:33:16;;;;;;;;;;;;;;;26.73;nan;101132.94;5072368;28;19916;-84
2023/07/20 07:35:41;;;;;;;;;;;;;;;26.85;nan;101136.81;5061444;28;20606;-85
2023/07/20 07:38:07;;;;;;;;;;;;;;;26.89;nan;101137.72;5065839;28;19971;-84
2023/07/20 07:40:32;;;;;;;;;;;;;;;26.89;nan;101137.72;5061111;28;19917;-84
2023/07/20 07:42:58;;;;;;;;;;;;;;;27.03;nan;101130.72;5065944;28;19920;-87
2023/07/20 07:45:23;;;;;;;;;;;;;;;27.06;nan;101131.94;5060855;28;19924;-84
2023/07/20 07:47:48;;;;;;;;;;;;;;;27.05;nan;101131.16;5059449;28;19924;-85
2023/07/20 07:50:14;;;;;;;;;;;;;;;27.06;nan;101142.97;5063982;28;19916;-85
2023/07/20 07:52:39;;;;;;;;;;;;;;;27.09;nan;101132.03;5057755;28;19936;-84
2023/07/20 07:55:04;;;;;;;;;;;;;;;27.16;nan;101128.72;5060711;28;19920;-84
2023/07/20 07:57:30;;;;;;;;;;;;;;;27.19;nan;101130.75;5061508;28;20530;-86
2023/07/20 07:59:55;;;;;;;;;;;;;;;27.21;nan;101139.44;5062238;28;19954;-86
2023/07/20 08:02:21;;;;;;;;;;;;;;;27.26;nan;101141.13;5060828;28;19920;-84
2023/07/20 08:04:46;;;;;;;;;;;;;;;27.37;nan;101132.03;5061721;28;21345;-85
2023/07/20 08:07:12;;;;;;;;;;;;;;;27.49;nan;101135.88;5062428;28;19927;-84
2023/07/20 08:09:37;;;;;;;;;;;;;;;27.70;nan;101130.94;5058408;28;20007;-83
2023/07/20 08:12:03;;;;;;;;;;;;;;;27.88;nan;101137.69;5057378;28;19916;-85
2023/07/20 08:14:29;;;;;;;;;;;;;;;27.83;nan;101137.97;5061883;28;20082;-85
2023/07/20 08:16:54;;;;;;;;;;;;;;;27.98;nan;101142.66;5061800;28;20436;-85
2023/07/20 08:19:19;;;;;;;;;;;;;;;28.15;nan;101143.44;5061010;28;20655;-84
2023/07/20 08:21:44;;;;;;;;;;;;;;;28.11;nan;101139.81;5061825;28;19950;-82
2023/07/20 08:24:10;;;;;;;;;;;;;;;28.15;nan;101135.97;5061538;28;19981;-85
2023/07/20 08:26:35;;;;;;;;;;;;;;;28.36;nan;101132.94;5063878;28;19921;-88
2023/07/20 08:29:00;;;;;;;;;;;;;;;28.49;nan;101131.66;5060099;28;20328;-85
2023/07/20 08:31:28;;;;;;;;;;;;;;;28.53;nan;101145.53;5059916;28;19924;-87
2023/07/20 08:33:53;;;;;;;;;;;;;;;28.40;nan;101149.56;5060739;28;19921;-86
2023/07/20 08:36:18;;;;;;;;;;;;;;;28.29;nan;101152.06;5061568;28;19931;-86
2023/07/20 08:38:44;;;;;;;;;;;;;;;28.22;nan;101141.66;5056555;28;19917;-86
2023/07/20 08:41:09;;;;;;;;;;;;;;;28.21;nan;101142.81;5060091;28;19916;-86
2023/07/20 08:43:36;;;;;;;;;;;;;;;28.30;nan;101142.66;5065132;28;20458;-84
2023/07/20 08:46:02;;;;;;;;;;;;;;;28.43;nan;101144.13;5067506;28;19917;-85
2023/07/20 08:48:29;;;;;;;;;;;;;;;28.46;nan;101143.41;5061850;28;19931;-84
2023/07/20 08:50:56;;;;;;;;;;;;;;;28.51;nan;101145.09;5065094;28;19969;-86
2023/07/20 08:53:21;;;;;;;;;;;;;;;28.49;nan;101153.72;5058097;28;20517;-85
2023/07/20 08:55:48;;;;;;;;;;;;;;;28.57;nan;101149.19;5059062;28;19924;-85
2023/07/20 08:58:14;;;;;;;;;;;;;;;28.80;nan;101141.00;5062068;28;19920;-85
2023/07/20 09:00:41;;;;;;;;;;;;;;;28.87;nan;101146.69;5060014;28;19924;-84
2023/07/20 09:03:06;;;;;;;;;;;;;;;28.84;nan;101142.66;5063393;28;20007;-84
2023/07/20 09:05:31;;;;;;;;;;;;;;;28.81;nan;101143.38;5060918;28;20046;-84
2023/07/20 09:07:57;;;;;;;;;;;;;;;28.96;nan;101140.97;5064647;28;19917;-84
2023/07/20 09:10:23;;;;;;;;;;;;;;;29.25;nan;101145.06;5065675;28;19916;-84
2023/07/20 09:12:49;;;;;;;;;;;;;;;29.47;nan;101136.84;5060002;28;19936;-85
2023/07/20 09:15:14;;;;;;;;;;;;;;;29.48;nan;101138.44;5068259;28;20296;-84
2023/07/20 09:17:44;;;;;;;;;;;;;;;29.34;nan;101145.63;5060136;28;19966;-85
2023/07/20 09:20:12;;;;;;;;;;;;;;;29.29;nan;101132.16;5064661;28;19931;-85
2023/07/20 09:22:41;;;;;;;;;;;;;;;29.38;nan;101129.94;5066759;28;19916;-86
2023/07/20 09:25:17;;;;;;;;;;;;;;;29.58;nan;101142.56;5064130;28;19928;-87
2023/07/20 09:27:43;;;;;;;;;;;;;;;29.67;nan;101123.78;5067030;28;19923;-86
2023/07/20 09:30:11;;;;;;;;;;;;;;;29.70;nan;101125.81;5061872;28;19916;-86
2023/07/20 09:32:40;;;;;;;;;;;;;;;29.78;nan;101130.28;5068000;28;19924;-86
2023/07/20 09:35:06;;;;;;;;;;;;;;;29.95;nan;101128.16;5065803;28;19920;-86
2023/07/20 09:37:32;;;;;;;;;;;;;;;30.14;nan;101141.91;5063437;28;19925;-86
2023/07/20 09:39:58;;;;;;;;;;;;;;;30.08;nan;101135.13;5067626;28;19916;-87
2023/07/20 09:42:25;;;;;;;;;;;;;;;29.92;nan;101143.53;5064366;28;19916;-88
2023/07/20 09:44:50;;;;;;;;;;;;;;;29.79;nan;101139.34;5061242;28;19926;-88
2023/07/20 09:47:21;;;;;;;;;;;;;;;29.69;nan;101140.78;5068025;28;19996;-88
2023/07/20 09:49:47;;;;;;;;;;;;;;;29.60;nan;101140.22;5068194;28;19924;-87
2023/07/20 09:52:13;;;;;;;;;;;;;;;29.53;nan;101140.09;5067413;28;19962;-87
2023/07/20 09:54:38;;;;;;;;;;;;;;;29.36;nan;101137.78;5062959;28;20015;-83
2023/07/20 09:57:06;;;;;;;;;;;;;;;29.28;nan;101147.09;5059729;28;20019;-85
2023/07/20 09:59:32;;;;;;;;;;;;;;;29.30;nan;101153.06;5061124;28;19952;-85
2023/07/20 10:01:59;;;;;;;;;;;;;;;29.34;nan;101131.84;5062523;28;19979;-85
2023/07/20 10:04:25;;;;;;;;;;;;;;;29.38;nan;101139.00;5066009;28;19916;-85
2023/07/20 10:06:53;;;;;;;;;;;;;;;29.42;nan;101150.13;5064323;28;19921;-87
2023/07/20 10:09:20;;;;;;;;;;;;;;;29.27;nan;101154.59;5063267;28;19923;-86
2023/07/20 10:11:49;;;;;;;;;;;;;;;29.21;nan;101149.72;5062508;28;20022;-84
2023/07/20 10:14:16;;;;;;;;;;;;;;;29.21;nan;101158.78;5060268;28;19993;-86
2023/07/20 10:16:49;;;;;;;;;;;;;;;29.13;nan;101160.63;5060781;28;19924;-85
2023/07/20 10:19:24;;;;;;;;;;;;;;;29.00;nan;101153.66;5058798;28;19954;-87
2023/07/20 10:21:56;;;;;;;;;;;;;;;28.85;nan;101160.81;5059865;28;19973;-85
2023/07/20 10:24:22;;;;;;;;;;;;;;;28.76;nan;101157.47;5058153;28;20445;-85
2023/07/20 10:26:47;;;;;;;;;;;;;;;28.72;nan;101164.03;5058623;28;20293;-84
2023/07/20 10:29:14;;;;;;;;;;;;;;;28.64;nan;101162.31;5059955;28;19924;-83
2023/07/20 10:31:40;;;;;;;;;;;;;;;28.56;nan;101166.88;5065258;28;19917;-84
2023/07/20 10:34:05;;;;;;;;;;;;;;;28.45;nan;101163.88;5062802;28;19924;-83
2023/07/20 10:36:31;;;;;;;;;;;;;;;28.36;nan;101163.25;5062588;28;19928;-86
2023/07/20 10:38:57;;;;;;;;;;;;;;;28.22;nan;101158.19;5064207;28;20378;-88
2023/07/20 10:41:35;;;;;;;;;;;;;;;28.18;nan;101159.25;5061668;28;19916;-84
2023/07/20 10:44:04;;;;;;;;;;;;;;;28.19;nan;101167.19;5066817;28;19925;-84
2023/07/20 10:46:38;;;;;;;;;;;;;;;28.15;nan;101174.53;5066738;28;20406;-84
2023/07/20 10:49:04;;;;;;;;;;;;;;;28.11;nan;101168.16;5063295;28;19916;-84
2023/07/20 10:51:30;;;;;;;;;;;;;;;28.10;nan;101174.03;5062386;28;19924;-84
2023/07/20 10:53:58;;;;;;;;;;;;;;;27.95;nan;101170.91;5059603;28;19924;-84
2023/07/20 10:56:26;;;;;;;;;;;;;;;27.90;nan;101179.44;5064948;28;19962;-84
2023/07/20 10:58:56;;;;;;;;;;;;;;;27.92;nan;101174.38;5060651;28;19956;-85
2023/07/20 11:01:21;;;;;;;;;;;;;;;27.89;nan;101168.78;5063398;28;19920;-84
2023/07/20 11:03:54;;;;;;;;;;;;;;;27.95;nan;101172.88;5058701;28;20017;-86
2023/07/20 11:06:25;;;;;;;;;;;;;;;27.97;nan;101171.34;5057142;28;19955;-85
2023/07/20 11:08:57;;;;;;;;;;;;;;;27.92;nan;101166.13;5058327;28;19928;-85
2023/07/20 11:11:23;;;;;;;;;;;;;;;27.91;nan;101167.28;5058349;28;20020;-84
2023/07/20 11:13:59;;;;;;;;;;;;;;;27.96;nan;101166.19;5054475;28;19929;-85
2023/07/20 11:17:00;;;;;;;;;;;;;;;27.89;nan;101164.09;5060703;28;19928;-86
2023/07/20 11:19:26;;;;;;;;;;;;;;;27.86;nan;101153.78;4992170;28;19976;-84
2023/07/20 11:21:52;;;;;;;;;;;;;;;27.84;nan;101167.09;5043411;28;20416;-86
2023/07/20 11:24:18;;;;;;;;;;;;;;;27.81;nan;101165.03;5057606;28;20000;-85
2023/07/20 11:26:47;;;;;;;;;;;;;;;27.73;nan;101156.97;5058285;28;20015;-85
2023/07/20 11:29:13;;;;;;;;;;;;;;;27.61;nan;101158.59;5061435;28;19954;-86
2023/07/20 11:31:39;;;;;;;;;;;;;;;27.63;nan;101155.53;5061453;28;20281;-85
2023/07/20 11:34:05;;;;;;;;;;;;;;;27.69;nan;101156.88;5059308;28;20464;-85
2023/07/20 11:36:31;;;;;;;;;;;;;;;27.82;nan;101158.38;5065530;28;19936;-85
2023/07/20 11:38:56;;;;;;;;;;;;;;;27.99;nan;101157.22;5059330;28;20352;-85
2023/07/20 11:41:22;;;;;;;;;;;;;;;28.11;nan;101159.09;5057614;28;19923;-84
2023/07/20 11:43:47;;;;;;;;;;;;;;;28.36;nan;101156.94;5058716;28;20389;-84
2023/07/20 11:46:12;;;;;;;;;;;;;;;28.75;nan;101138.53;5067080;28;20648;-83
2023/07/20 11:48:39;;;;;;;;;;;;;;;29.01;nan;101146.97;5061085;28;20339;-85
2023/07/20 11:51:05;;;;;;;;;;;;;;;29.26;nan;101141.94;5060941;28;19916;-84
2023/07/20 11:53:30;;;;;;;;;;;;;;;29.50;nan;101138.09;5064819;28;19932;-84
2023/07/20 11:55:56;;;;;;;;;;;;;;;29.75;nan;101133.78;5059759;28;19920;-84
2023/07/20 11:58:22;;;;;;;;;;;;;;;29.85;nan;101146.19;5064762;28;19924;-84
2023/07/20 12:00:47;;;;;;;;;;;;;;;29.91;nan;101143.91;5064288;28;20427;-84
2023/07/20 12:03:12;;;;;;;;;;;;;;;30.04;nan;101142.56;5059691;28;19974;-85
2023/07/20 12:05:38;;;;;;;;;;;;;;;30.28;nan;101142.13;5061213;28;19920;-83
2023/07/20 12:08:04;;;;;;;;;;;;;;;30.40;nan;101145.88;5065269;28;19920;-82
2023/07/20 12:10:29;;;;;;;;;;;;;;;30.38;nan;101147.03;5063782;28;19971;-84
2023/07/20 12:13:00;;;;;;;;;;;;;;;30.35;nan;101150.56;5059041;28;19955;-83
2023/07/20 12:15:26;;;;;;;;;;;;;;;30.43;nan;101140.38;5061259;28;20000;-85
2023/07/20 12:17:52;;;;;;;;;;;;;;;30.45;nan;101140.81;5061219;28;19921;-86
2023/07/20 12:20:28;;;;;;;;;;;;;;;30.30;nan;101139.78;5065524;28;19989;-86
2023/07/20 12:22:56;;;;;;;;;;;;;;;30.07;nan;101141.81;5059246;28;20037;-85
2023/07/20 12:25:21;;;;;;;;;;;;;;;30.06;nan;101143.78;5065432;28;19936;-85
2023/07/20 12:27:47;;;;;;;;;;;;;;;30.02;nan;101134.63;5064415;28;21587;-83
2023/07/20 12:30:15;;;;;;;;;;;;;;;30.09;nan;101133.97;5060442;28;20006;-83
2023/07/20 12:32:41;;;;;;;;;;;;;;;30.17;nan;101135.69;5064192;28;19951;-86
2023/07/20 12:35:06;;;;;;;;;;;;;;;30.14;nan;101125.34;5065036;28;20400;-89
2023/07/20 12:37:32;;;;;;;;;;;;;;;30.28;nan;101139.38;5066629;28;19932;-87
2023/07/20 12:39:57;;;;;;;;;;;;;;;30.27;nan;101135.03;5066713;28;19923;-86
2023/07/20 12:42:23;;;;;;;;;;;;;;;30.24;nan;101124.72;5063295;28;19921;-88
2023/07/20 12:44:49;;;;;;;;;;;;;;;30.23;nan;101125.88;5058013;28;19920;-86
2023/07/20 12:47:14;;;;;;;;;;;;;;;30.16;nan;101120.22;5061595;28;19993;-84
2023/07/20 12:49:40;;;;;;;;;;;;;;;30.28;nan;101117.25;5062413;28;20392;-84
2023/07/20 12:52:05;;;;;;;;;;;;;;;30.55;nan;101123.56;5058715;28;19916;-85